Time;durP1;ratioP1;P1;durP2;ratioP2;P2;SDS_P1;SDS_P2;PMS_P1;PMS_P2;Temp;Humidity;BMP_temperature;BMP_pressure;BME280_temperature;BME280_humidity;BME280_pressure;Samples;Min_cycle;Max_cycle;Signal;HPM_P1;HPM_P2
2022/07/19 00:00:31;;;;;;;6.20;3.92;;;22.10;93.60;;;;;;4867483;29;20164;-85
2022/07/19 00:02:56;;;;;;;5.30;3.47;;;22.00;93.70;;;;;;4848999;29;20030;-86
2022/07/19 00:05:22;;;;;;;4.28;3.30;;;22.00;94.20;;;;;;4902662;29;20040;-86
2022/07/19 00:07:48;;;;;;;5.53;3.65;;;21.90;94.80;;;;;;4870874;29;20070;-84
2022/07/19 00:10:15;;;;;;;6.68;3.22;;;21.90;94.90;;;;;;4888504;29;20136;-84
2022/07/19 00:12:42;;;;;;;6.47;3.60;;;21.80;95.20;;;;;;4885323;29;20069;-85
2022/07/19 00:15:10;;;;;;;5.85;3.53;;;21.70;95.50;;;;;;4879176;29;20055;-85
2022/07/19 00:17:40;;;;;;;6.13;4.20;;;21.70;96.20;;;;;;4878956;29;20045;-86
2022/07/19 00:20:07;;;;;;;6.53;3.92;;;21.70;96.40;;;;;;4865643;29;20124;-86
2022/07/19 00:22:32;;;;;;;6.38;3.53;;;21.70;96.30;;;;;;4875097;29;20041;-85
2022/07/19 00:24:58;;;;;;;6.25;4.13;;;21.60;96.50;;;;;;4864801;29;20045;-85
2022/07/19 00:27:24;;;;;;;6.45;4.10;;;21.60;96.70;;;;;;4862714;29;20052;-85
2022/07/19 00:29:49;;;;;;;7.75;4.13;;;21.60;96.80;;;;;;4836840;29;20525;-86
2022/07/19 00:32:15;;;;;;;5.93;4.15;;;21.50;96.90;;;;;;4867133;29;20076;-85
2022/07/19 00:34:41;;;;;;;7.13;3.95;;;21.50;97.10;;;;;;4847449;29;20042;-86
2022/07/19 00:37:07;;;;;;;7.35;4.32;;;21.50;97.10;;;;;;4875715;29;20113;-85
2022/07/19 00:39:32;;;;;;;6.80;4.15;;;21.50;96.90;;;;;;4877104;29;20041;-86
2022/07/19 00:41:58;;;;;;;6.13;4.40;;;21.50;96.90;;;;;;4862506;29;20116;-84
2022/07/19 00:44:23;;;;;;;7.15;4.43;;;21.50;96.90;;;;;;4860986;29;20045;-85
2022/07/19 00:46:50;;;;;;;8.30;4.35;;;21.40;97.40;;;;;;4866586;29;20057;-84
2022/07/19 00:49:15;;;;;;;7.47;4.43;;;21.40;97.20;;;;;;4881995;29;20084;-86
2022/07/19 00:51:42;;;;;;;6.32;4.32;;;21.30;97.40;;;;;;4862087;29;20076;-85
2022/07/19 00:54:10;;;;;;;4.50;3.78;;;21.30;97.60;;;;;;4878875;29;20139;-86
2022/07/19 00:56:37;;;;;;;6.72;3.80;;;21.30;97.90;;;;;;4880924;29;20431;-85
2022/07/19 00:59:05;;;;;;;6.40;4.20;;;21.30;97.90;;;;;;4883644;29;20078;-85
2022/07/19 01:01:31;;;;;;;5.47;4.22;;;21.20;98.00;;;;;;4886062;29;20048;-86
2022/07/19 01:03:58;;;;;;;5.68;3.95;;;21.20;98.10;;;;;;4865914;29;20040;-84
2022/07/19 01:06:23;;;;;;;9.05;4.68;;;21.20;98.10;;;;;;4866923;29;20056;-85
2022/07/19 01:08:49;;;;;;;7.05;4.10;;;21.20;98.30;;;;;;4865314;29;20040;-86
2022/07/19 01:11:15;;;;;;;7.30;3.80;;;21.10;98.50;;;;;;4866253;29;20498;-86
2022/07/19 01:13:41;;;;;;;6.93;4.30;;;21.10;98.80;;;;;;4843842;29;20097;-86
2022/07/19 01:16:07;;;;;;;6.43;4.10;;;21.00;98.90;;;;;;4874763;29;20056;-86
2022/07/19 01:18:33;;;;;;;4.93;3.90;;;21.00;99.10;;;;;;4862732;29;20399;-86
2022/07/19 01:21:00;;;;;;;7.32;4.28;;;20.90;99.50;;;;;;4864801;29;20042;-85
2022/07/19 01:23:26;;;;;;;5.40;4.03;;;20.80;99.80;;;;;;4847068;29;20041;-86
2022/07/19 01:25:52;;;;;;;6.30;4.20;;;20.80;99.90;;;;;;4877457;29;20549;-85
2022/07/19 01:28:17;;;;;;;4.50;3.72;;;20.80;99.90;;;;;;4861067;29;20052;-85
2022/07/19 01:30:43;;;;;;;8.65;4.63;;;20.70;99.90;;;;;;4860971;29;20041;-86
2022/07/19 01:33:09;;;;;;;7.10;4.18;;;20.70;99.90;;;;;;4865353;29;20518;-86
2022/07/19 01:35:35;;;;;;;8.52;4.70;;;20.70;99.90;;;;;;4865402;29;20056;-86
2022/07/19 01:38:00;;;;;;;8.13;4.75;;;20.70;99.90;;;;;;4880091;29;20097;-86
2022/07/19 01:40:26;;;;;;;7.03;4.57;;;20.60;99.90;;;;;;4864701;29;20044;-86
2022/07/19 01:42:52;;;;;;;5.50;4.07;;;20.50;99.90;;;;;;4880420;29;20045;-86
2022/07/19 01:45:19;;;;;;;7.57;4.50;;;20.40;99.90;;;;;;4878536;29;20072;-85
2022/07/19 01:47:45;;;;;;;9.60;5.20;;;20.40;99.90;;;;;;4860150;29;20057;-86
2022/07/19 01:50:12;;;;;;;4.82;4.28;;;20.40;99.90;;;;;;4876632;29;20065;-85
2022/07/19 01:52:38;;;;;;;7.72;4.65;;;20.40;99.90;;;;;;4880403;29;20383;-86
2022/07/19 01:55:04;;;;;;;6.07;4.60;;;20.30;99.90;;;;;;4880242;29;20045;-86
2022/07/19 01:57:30;;;;;;;9.00;4.65;;;20.30;99.90;;;;;;4875260;29;20044;-86
2022/07/19 01:59:56;;;;;;;6.68;4.40;;;20.30;99.90;;;;;;4867394;29;20135;-85
2022/07/19 02:02:22;;;;;;;7.38;5.03;;;20.30;99.90;;;;;;4875597;29;20397;-86
2022/07/19 02:04:48;;;;;;;7.47;4.60;;;20.20;99.90;;;;;;4863059;29;20120;-85
2022/07/19 02:07:14;;;;;;;8.45;5.00;;;20.20;99.90;;;;;;4860679;29;20135;-85
2022/07/19 02:09:39;;;;;;;6.38;4.70;;;20.20;99.90;;;;;;4878216;29;20454;-85
2022/07/19 02:12:05;;;;;;;9.35;4.97;;;20.20;99.90;;;;;;4875863;29;20506;-85
2022/07/19 02:14:31;;;;;;;5.63;4.75;;;20.10;99.90;;;;;;4875651;29;20068;-85
2022/07/19 02:16:56;;;;;;;9.07;5.00;;;20.10;99.90;;;;;;4850750;29;20101;-86
2022/07/19 02:19:22;;;;;;;6.93;4.78;;;20.10;99.90;;;;;;4856304;29;20073;-86
2022/07/19 02:21:48;;;;;;;6.47;5.53;;;20.10;99.90;;;;;;4859361;29;20057;-86
2022/07/19 02:24:14;;;;;;;6.10;5.13;;;20.10;99.90;;;;;;4847880;29;20522;-86
2022/07/19 02:26:40;;;;;;;9.05;5.93;;;20.00;99.90;;;;;;4878324;29;20127;-86
2022/07/19 02:29:06;;;;;;;8.65;5.20;;;20.00;99.90;;;;;;4863773;29;20129;-85
2022/07/19 02:31:32;;;;;;;7.47;5.10;;;20.00;99.90;;;;;;4877613;29;20044;-86
2022/07/19 02:33:58;;;;;;;6.25;5.22;;;19.90;99.90;;;;;;4864456;29;20080;-86
2022/07/19 02:36:24;;;;;;;7.32;5.13;;;19.90;99.90;;;;;;4879706;29;20089;-86
2022/07/19 02:38:50;;;;;;;7.75;5.50;;;19.90;99.90;;;;;;4870287;29;20042;-86
2022/07/19 02:41:16;;;;;;;8.40;5.28;;;19.80;99.90;;;;;;4876135;29;20048;-85
2022/07/19 02:43:42;;;;;;;8.75;5.53;;;19.80;99.90;;;;;;4863348;29;20052;-87
2022/07/19 02:46:08;;;;;;;6.85;5.65;;;19.80;99.90;;;;;;4848075;29;20065;-87
2022/07/19 02:48:34;;;;;;;5.72;5.03;;;19.80;99.90;;;;;;4874897;29;20053;-86
2022/07/19 02:50:59;;;;;;;6.53;5.35;;;19.80;99.90;;;;;;4877964;29;20045;-86
2022/07/19 02:53:25;;;;;;;7.13;5.72;;;19.80;99.90;;;;;;4863810;29;20045;-86
2022/07/19 02:55:51;;;;;;;7.88;5.22;;;19.70;99.90;;;;;;4879308;29;20047;-85
2022/07/19 02:58:17;;;;;;;9.15;5.47;;;19.70;99.90;;;;;;4874986;29;20052;-87
2022/07/19 03:00:43;;;;;;;8.00;5.90;;;19.70;99.90;;;;;;4872603;29;20049;-86
2022/07/19 03:05:54;;;;;;;10.63;6.00;;;19.60;99.90;;;;;;4882727;29;20263;-87
2022/07/19 03:08:20;;;;;;;6.72;5.63;;;19.50;99.90;;;;;;4876533;29;20132;-86
2022/07/19 03:10:46;;;;;;;6.82;5.60;;;19.50;99.90;;;;;;4867374;29;20178;-85
2022/07/19 03:13:11;;;;;;;7.95;5.03;;;19.50;99.90;;;;;;4873102;29;20052;-86
2022/07/19 03:15:37;;;;;;;9.15;5.70;;;19.40;99.90;;;;;;4871560;29;20513;-85
2022/07/19 03:18:03;;;;;;;6.10;5.10;;;19.40;99.90;;;;;;4874359;29;20462;-86
2022/07/19 03:20:29;;;;;;;8.27;5.93;;;19.40;99.90;;;;;;4867222;29;20128;-86
2022/07/19 03:22:55;;;;;;;7.60;5.70;;;19.30;99.90;;;;;;4873633;29;20107;-86
2022/07/19 03:25:20;;;;;;;10.35;6.50;;;19.30;99.90;;;;;;4880324;29;20037;-87
2022/07/19 03:27:46;;;;;;;8.43;5.85;;;19.30;99.90;;;;;;4867448;29;20044;-85
2022/07/19 03:30:12;;;;;;;8.93;6.18;;;19.20;99.90;;;;;;4880860;29;20064;-85
2022/07/19 03:32:37;;;;;;;8.80;6.45;;;19.20;99.90;;;;;;4868148;29;20142;-85
2022/07/19 03:35:04;;;;;;;9.88;6.07;;;19.20;99.90;;;;;;4877367;29;20041;-86
2022/07/19 03:37:29;;;;;;;7.80;5.70;;;19.20;99.90;;;;;;4836447;29;20498;-86
2022/07/19 03:39:55;;;;;;;7.97;6.35;;;19.20;99.90;;;;;;4865047;29;20056;-87
2022/07/19 03:42:21;;;;;;;9.68;6.38;;;19.10;99.90;;;;;;4868164;29;20056;-87
2022/07/19 03:44:46;;;;;;;8.52;6.47;;;19.20;99.90;;;;;;4883078;29;20053;-85
2022/07/19 03:47:12;;;;;;;10.95;6.38;;;19.10;99.90;;;;;;4868107;29;20067;-85
2022/07/19 03:49:38;;;;;;;9.18;6.63;;;19.10;99.90;;;;;;4868343;29;20057;-86
2022/07/19 03:52:04;;;;;;;8.23;6.30;;;19.10;99.90;;;;;;4867998;29;20486;-86
2022/07/19 03:54:29;;;;;;;8.80;6.65;;;19.10;99.90;;;;;;4843159;29;20457;-85
2022/07/19 03:56:55;;;;;;;9.32;6.85;;;19.10;99.90;;;;;;4882459;29;20073;-85
2022/07/19 03:59:22;;;;;;;11.48;6.70;;;19.00;99.90;;;;;;4879088;29;20075;-86
2022/07/19 04:01:49;;;;;;;8.10;6.72;;;19.00;99.90;;;;;;4874324;29;20541;-87
2022/07/19 04:04:14;;;;;;;9.50;6.90;;;19.00;99.90;;;;;;4865805;29;20044;-85
2022/07/19 04:06:40;;;;;;;10.65;6.50;;;19.00;99.90;;;;;;4867751;29;20045;-87
2022/07/19 04:09:06;;;;;;;9.82;7.18;;;19.00;99.90;;;;;;4865289;29;20042;-86
2022/07/19 04:11:32;;;;;;;8.85;6.65;;;19.00;99.90;;;;;;4866471;29;20045;-86
2022/07/19 04:13:57;;;;;;;8.35;6.53;;;18.90;99.90;;;;;;4852322;29;20124;-86
2022/07/19 04:16:23;;;;;;;8.38;6.80;;;18.90;99.90;;;;;;4867253;29;20430;-86
2022/07/19 04:18:49;;;;;;;7.53;6.57;;;18.90;99.90;;;;;;4878380;29;20052;-85
2022/07/19 04:21:14;;;;;;;8.00;6.32;;;18.90;99.90;;;;;;4865865;29;20498;-85
2022/07/19 04:23:40;;;;;;;9.65;6.90;;;18.90;99.90;;;;;;4851049;29;20398;-84
2022/07/19 04:26:06;;;;;;;10.13;6.70;;;19.00;99.90;;;;;;4850841;29;20052;-86
2022/07/19 04:28:31;;;;;;;8.82;7.18;;;19.00;99.90;;;;;;4833096;29;20049;-86
2022/07/19 04:30:57;;;;;;;12.93;7.45;;;19.00;99.90;;;;;;4867612;29;20045;-86
2022/07/19 04:33:23;;;;;;;9.90;6.82;;;19.00;99.90;;;;;;4864166;29;20799;-86
2022/07/19 04:35:49;;;;;;;9.35;7.22;;;19.00;99.90;;;;;;4875203;29;20072;-87
2022/07/19 04:38:15;;;;;;;9.63;6.75;;;19.00;99.90;;;;;;4865374;29;20090;-86
2022/07/19 04:40:41;;;;;;;9.45;7.15;;;19.00;99.90;;;;;;4879099;29;20093;-86
2022/07/19 04:43:06;;;;;;;10.25;7.28;;;19.00;99.90;;;;;;4866845;29;20045;-86
2022/07/19 04:45:32;;;;;;;8.43;6.78;;;19.00;99.90;;;;;;4882918;29;20124;-86
2022/07/19 04:47:58;;;;;;;11.18;7.00;;;19.00;99.90;;;;;;4861206;29;20041;-86
2022/07/19 04:50:23;;;;;;;10.13;7.10;;;19.00;99.90;;;;;;4880731;29;20165;-86
2022/07/19 04:52:49;;;;;;;10.45;7.38;;;19.00;99.90;;;;;;4867799;29;20058;-85
2022/07/19 04:55:15;;;;;;;9.80;6.50;;;19.00;99.90;;;;;;4879129;29;20044;-86
2022/07/19 04:57:40;;;;;;;10.07;6.93;;;19.00;99.90;;;;;;4867725;29;20045;-86
2022/07/19 05:00:09;;;;;;;8.82;5.72;;;19.10;99.90;;;;;;4858424;29;20449;-86
2022/07/19 05:02:36;;;;;;;9.60;6.75;;;19.10;99.90;;;;;;4873309;29;20048;-87
2022/07/19 05:05:03;;;;;;;9.82;7.32;;;19.10;99.90;;;;;;4879269;29;20053;-85
2022/07/19 05:07:29;;;;;;;9.23;7.05;;;19.20;99.90;;;;;;4880990;29;20051;-86
2022/07/19 05:09:55;;;;;;;8.38;6.65;;;19.20;99.90;;;;;;4880423;29;20048;-86
2022/07/19 05:12:20;;;;;;;12.18;7.35;;;19.20;99.90;;;;;;4866884;29;20037;-86
2022/07/19 05:14:46;;;;;;;9.13;7.68;;;19.20;99.90;;;;;;4864909;29;20053;-86
2022/07/19 05:17:12;;;;;;;10.88;7.47;;;19.30;99.90;;;;;;4849607;29;20132;-86
2022/07/19 05:19:38;;;;;;;11.15;7.30;;;19.30;99.90;;;;;;4851065;29;20078;-86
2022/07/19 05:22:04;;;;;;;9.20;6.60;;;19.30;99.90;;;;;;4846420;29;20497;-86
2022/07/19 05:24:29;;;;;;;10.70;7.70;;;19.40;99.90;;;;;;4856290;29;20038;-84
2022/07/19 05:26:55;;;;;;;14.45;7.75;;;19.40;99.90;;;;;;4878822;29;20128;-86
2022/07/19 05:29:21;;;;;;;12.15;7.80;;;19.50;99.90;;;;;;4862979;29;20048;-86
2022/07/19 05:31:46;;;;;;;8.98;6.85;;;19.50;99.90;;;;;;4869834;29;20127;-87
2022/07/19 05:34:12;;;;;;;11.55;7.75;;;19.50;99.90;;;;;;4850775;29;20049;-85
2022/07/19 05:36:38;;;;;;;11.88;7.43;;;19.60;99.90;;;;;;4865957;29;20111;-87
2022/07/19 05:39:04;;;;;;;9.80;7.60;;;19.70;99.90;;;;;;4869510;29;20531;-87
2022/07/19 05:41:30;;;;;;;11.50;7.50;;;19.70;99.90;;;;;;4875798;29;20158;-86
2022/07/19 05:43:55;;;;;;;11.80;7.47;;;19.80;99.90;;;;;;4862515;29;20041;-85
2022/07/19 05:46:21;;;;;;;10.15;7.32;;;19.80;99.90;;;;;;4866174;29;20498;-86
2022/07/19 05:48:47;;;;;;;12.98;7.38;;;19.90;99.90;;;;;;4870239;29;20064;-86
2022/07/19 05:51:13;;;;;;;12.25;7.50;;;20.00;99.90;;;;;;4866081;29;20108;-86
2022/07/19 05:53:39;;;;;;;11.45;7.80;;;20.00;99.90;;;;;;4871404;29;20097;-84
2022/07/19 05:56:06;;;;;;;9.73;7.70;;;20.10;99.90;;;;;;4847799;29;20049;-85
2022/07/19 05:58:32;;;;;;;11.57;7.10;;;20.10;99.90;;;;;;4877012;29;20486;-85
2022/07/19 06:03:42;;;;;;;12.38;7.30;;;20.30;99.90;;;;;;4879737;29;20045;-86
2022/07/19 06:06:08;;;;;;;10.65;7.45;;;20.30;99.90;;;;;;4864829;29;20045;-86
2022/07/19 06:08:34;;;;;;;8.95;6.95;;;20.40;99.90;;;;;;4868549;29;20041;-85
2022/07/19 06:11:00;;;;;;;10.27;6.75;;;20.50;99.90;;;;;;4859012;29;20105;-85
2022/07/19 06:13:26;;;;;;;10.55;7.15;;;20.50;99.90;;;;;;4865172;29;20490;-86
2022/07/19 06:15:51;;;;;;;10.77;7.28;;;20.60;99.90;;;;;;4877755;29;20068;-85
2022/07/19 06:18:17;;;;;;;9.82;7.18;;;20.70;99.90;;;;;;4856418;29;20127;-84
2022/07/19 06:20:43;;;;;;;10.18;6.43;;;20.70;99.90;;;;;;4891777;29;20045;-84
2022/07/19 06:23:09;;;;;;;9.70;6.78;;;20.80;99.90;;;;;;4875475;29;20055;-84
2022/07/19 06:25:34;;;;;;;9.02;7.15;;;20.90;99.90;;;;;;4850233;29;20045;-83
2022/07/19 06:28:00;;;;;;;8.27;6.38;;;21.00;99.90;;;;;;4881079;29;20083;-85
2022/07/19 06:30:26;;;;;;;8.27;6.47;;;21.10;99.90;;;;;;4869180;29;20116;-84
2022/07/19 06:32:52;;;;;;;11.38;6.95;;;21.20;99.90;;;;;;4853703;29;20070;-88
2022/07/19 06:35:17;;;;;;;9.95;6.60;;;21.30;99.90;;;;;;4896367;29;20044;-87
2022/07/19 06:37:43;;;;;;;8.20;6.18;;;21.40;99.90;;;;;;4870831;29;20103;-86
2022/07/19 06:40:09;;;;;;;7.60;6.05;;;21.50;99.90;;;;;;4883489;29;20051;-86
2022/07/19 06:42:35;;;;;;;10.15;6.22;;;21.70;99.90;;;;;;4870899;29;20053;-87
2022/07/19 06:45:03;;;;;;;8.15;6.28;;;21.80;99.90;;;;;;4880810;29;20136;-89
2022/07/19 06:47:29;;;;;;;8.50;5.57;;;22.00;99.90;;;;;;4850333;29;20053;-86
2022/07/19 06:49:55;;;;;;;10.73;5.93;;;22.20;99.90;;;;;;4864087;29;20068;-87
2022/07/19 06:52:21;;;;;;;11.40;6.18;;;22.40;99.90;;;;;;4892935;29;20482;-86
2022/07/19 06:54:46;;;;;;;8.93;6.25;;;22.60;99.90;;;;;;4864996;29;20073;-86
2022/07/19 06:57:12;;;;;;;8.90;5.95;;;22.80;99.70;;;;;;4860948;29;20041;-86
2022/07/19 06:59:38;;;;;;;6.63;5.45;;;23.00;99.30;;;;;;4878313;29;20060;-86
2022/07/19 07:02:04;;;;;;;10.27;5.60;;;23.20;99.20;;;;;;4862011;29;20049;-86
2022/07/19 07:04:30;;;;;;;8.13;5.30;;;23.50;99.20;;;;;;4865768;29;20409;-85
2022/07/19 07:06:56;;;;;;;12.18;5.80;;;23.70;98.90;;;;;;4863873;29;20077;-85
2022/07/19 07:09:22;;;;;;;6.45;5.25;;;23.90;98.40;;;;;;4865336;29;20053;-85
2022/07/19 07:11:48;;;;;;;6.55;4.90;;;24.10;98.10;;;;;;4874884;29;20056;-85
2022/07/19 07:14:14;;;;;;;9.73;5.30;;;24.30;97.80;;;;;;4862444;29;20041;-85
2022/07/19 07:16:40;;;;;;;6.88;4.38;;;24.50;97.60;;;;;;4844641;29;20068;-85
2022/07/19 07:19:05;;;;;;;6.22;4.53;;;24.60;97.50;;;;;;4861368;29;20049;-85
2022/07/19 07:21:34;;;;;;;7.30;4.65;;;24.80;97.30;;;;;;4865144;29;20176;-84
2022/07/19 07:24:01;;;;;;;7.15;4.40;;;25.00;97.20;;;;;;4863820;29;20052;-86
2022/07/19 07:26:27;;;;;;;6.70;5.07;;;25.20;97.00;;;;;;4873595;29;20045;-84
2022/07/19 07:28:53;;;;;;;7.65;4.18;;;25.40;96.70;;;;;;4856633;29;20045;-84
2022/07/19 07:31:19;;;;;;;8.63;4.63;;;25.70;96.30;;;;;;4865534;29;20088;-84
2022/07/19 07:33:44;;;;;;;4.75;3.70;;;26.10;96.00;;;;;;4876659;29;20041;-85
2022/07/19 07:36:10;;;;;;;5.65;3.88;;;26.40;95.60;;;;;;4880455;29;20041;-85
2022/07/19 07:38:36;;;;;;;6.03;3.40;;;26.80;95.30;;;;;;4865379;29;20093;-86
2022/07/19 07:41:03;;;;;;;5.15;3.65;;;27.10;94.80;;;;;;4861239;29;20072;-84
2022/07/19 07:43:29;;;;;;;4.20;3.00;;;27.40;94.40;;;;;;4878905;29;20476;-84
2022/07/19 07:45:55;;;;;;;8.32;3.75;;;27.60;94.50;;;;;;4867674;29;20096;-85
2022/07/19 07:48:21;;;;;;;5.15;3.13;;;27.70;94.40;;;;;;4883307;29;20096;-85
2022/07/19 07:50:46;;;;;;;6.63;3.40;;;27.90;94.20;;;;;;4880316;29;20045;-86
2022/07/19 07:53:12;;;;;;;4.10;3.05;;;28.10;93.60;;;;;;4864072;29;20439;-85
2022/07/19 07:55:39;;;;;;;4.00;3.00;;;28.20;93.40;;;;;;4865231;29;20057;-85
2022/07/19 07:58:10;;;;;;;5.93;2.95;;;28.40;93.20;;;;;;4865016;29;20053;-86
2022/07/19 08:00:37;;;;;;;4.22;2.65;;;28.50;92.40;;;;;;4885350;29;20056;-86
2022/07/19 08:03:02;;;;;;;4.43;2.08;;;28.70;92.10;;;;;;4859281;29;20037;-85
2022/07/19 08:05:29;;;;;;;5.18;2.60;;;28.80;91.50;;;;;;4873903;29;20097;-84
2022/07/19 08:07:54;;;;;;;7.00;2.83;;;29.00;91.10;;;;;;4883842;29;20049;-85
2022/07/19 08:10:22;;;;;;;6.70;3.22;;;29.00;90.80;;;;;;4881878;29;20112;-84
2022/07/19 08:12:48;;;;;;;5.38;2.80;;;29.20;90.20;;;;;;4864120;29;20129;-85
2022/07/19 08:15:14;;;;;;;5.38;2.70;;;29.40;90.10;;;;;;4862431;29;20085;-84
2022/07/19 08:17:40;;;;;;;3.72;2.53;;;29.50;87.80;;;;;;4841024;29;20049;-85
2022/07/19 08:20:06;;;;;;;6.35;2.50;;;29.60;87.00;;;;;;4860574;29;20053;-86
2022/07/19 08:22:32;;;;;;;5.43;2.40;;;29.70;87.60;;;;;;4879377;29;20037;-85
2022/07/19 08:24:58;;;;;;;7.45;2.60;;;29.80;86.80;;;;;;4863251;29;20060;-83
2022/07/19 08:27:23;;;;;;;3.45;2.13;;;29.90;84.20;;;;;;4864010;29;20044;-84
2022/07/19 08:29:49;;;;;;;8.00;2.60;;;30.00;84.70;;;;;;4851098;29;21806;-85
2022/07/19 08:32:15;;;;;;;3.80;2.33;;;30.20;85.20;;;;;;4896521;29;20053;-84
2022/07/19 08:34:41;;;;;;;3.47;2.10;;;30.20;84.40;;;;;;4851737;29;20493;-85
2022/07/19 08:37:06;;;;;;;5.05;2.60;;;30.30;84.10;;;;;;4850749;29;20490;-86
2022/07/19 08:39:32;;;;;;;3.08;1.92;;;30.50;83.40;;;;;;4866978;29;20041;-85
2022/07/19 08:41:58;;;;;;;5.50;2.30;;;30.60;82.70;;;;;;4848964;29;20049;-84
2022/07/19 08:44:24;;;;;;;3.78;2.20;;;30.70;83.90;;;;;;4850464;29;20076;-86
2022/07/19 08:46:51;;;;;;;3.00;2.20;;;30.80;82.20;;;;;;4878520;29;20085;-84
2022/07/19 08:49:17;;;;;;;4.90;2.10;;;30.90;82.70;;;;;;4856670;29;20516;-84
2022/07/19 08:51:44;;;;;;;2.72;2.08;;;31.00;82.00;;;;;;4866218;29;20056;-84
2022/07/19 08:54:09;;;;;;;5.15;2.10;;;31.10;79.60;;;;;;4882435;29;20045;-84
2022/07/19 08:59:23;;;;;;;4.68;2.38;;;31.30;79.00;;;;;;4877259;29;20209;-84
2022/07/19 09:01:48;;;;;;;4.20;2.00;;;31.40;77.40;;;;;;4872158;29;20079;-85
2022/07/19 09:04:16;;;;;;;6.03;2.53;;;31.50;75.30;;;;;;4850116;29;20048;-86
2022/07/19 09:06:45;;;;;;;8.68;2.65;;;31.60;76.30;;;;;;4859434;29;20060;-85
2022/07/19 09:09:13;;;;;;;4.10;2.30;;;31.80;75.60;;;;;;4879016;29;20055;-88
2022/07/19 09:11:48;;;;;;;5.07;2.20;;;31.90;76.80;;;;;;4881844;29;20060;-85
2022/07/19 09:14:15;;;;;;;;;;;32.00;75.60;;;;;;4870335;29;20044;-84
2022/07/19 09:17:09;;;;;;;3.65;2.38;;;32.10;72.80;;;;;;4879341;29;20346;-84
2022/07/19 09:19:40;;;;;;;5.47;2.30;;;32.30;75.00;;;;;;4875969;29;20061;-84
2022/07/19 09:22:11;;;;;;;7.40;2.30;;;32.40;73.00;;;;;;4865594;29;20088;-84
2022/07/19 09:24:43;;;;;;;5.25;2.22;;;32.50;72.00;;;;;;4878180;29;20423;-85
2022/07/19 09:27:08;;;;;;;5.43;2.00;;;32.60;72.70;;;;;;4876037;29;20096;-84
2022/07/19 09:29:40;;;;;;;4.13;2.20;;;32.70;73.20;;;;;;4880942;29;20049;-83
2022/07/19 09:32:12;;;;;;;5.57;2.03;;;32.70;70.30;;;;;;4881306;29;20070;-84
2022/07/19 09:34:54;;;;;;;7.25;2.22;;;32.80;67.50;;;;;;4881332;29;20048;-82
2022/07/19 09:37:25;;;;;;;4.50;2.40;;;32.90;67.50;;;;;;4865590;29;20533;-83
2022/07/19 09:40:03;;;;;;;7.30;2.22;;;33.10;69.00;;;;;;4875578;29;20042;-85
2022/07/19 09:42:42;;;;;;;6.90;2.30;;;33.10;67.60;;;;;;4880256;29;20084;-84
2022/07/19 09:45:12;;;;;;;5.28;2.33;;;33.20;65.80;;;;;;4859982;29;20052;-84
2022/07/19 09:47:43;;;;;;;4.93;2.50;;;33.30;65.00;;;;;;4880132;29;20053;-83
2022/07/19 09:50:17;;;;;;;4.43;2.20;;;33.30;63.10;;;;;;4865113;29;20446;-85
2022/07/19 09:52:45;;;;;;;5.43;2.20;;;33.30;63.40;;;;;;4864487;29;20049;-84
2022/07/19 09:55:11;;;;;;;4.05;2.22;;;33.30;62.60;;;;;;4857928;29;20057;-86
2022/07/19 09:57:44;;;;;;;7.43;2.38;;;33.20;61.40;;;;;;4862996;29;20077;-84
2022/07/19 10:00:11;;;;;;;4.00;2.00;;;33.10;61.70;;;;;;4876104;29;20068;-84
2022/07/19 10:02:40;;;;;;;4.05;2.00;;;33.10;62.90;;;;;;4885778;29;20053;-84
2022/07/19 10:05:07;;;;;;;4.45;1.88;;;33.10;61.90;;;;;;4882326;29;20053;-85
2022/07/19 10:07:33;;;;;;;5.20;2.30;;;33.10;64.00;;;;;;4874599;29;20048;-85
2022/07/19 10:10:10;;;;;;;5.80;2.33;;;33.10;64.90;;;;;;4880830;29;20060;-86
2022/07/19 10:12:38;;;;;;;4.80;2.30;;;33.00;63.70;;;;;;4880593;29;20054;-85
2022/07/19 10:15:08;;;;;;;3.95;2.10;;;33.00;63.00;;;;;;4862392;29;20117;-85
2022/07/19 10:17:45;;;;;;;5.97;2.13;;;33.00;62.80;;;;;;4875005;29;20056;-85
2022/07/19 10:20:15;;;;;;;3.60;2.28;;;33.10;63.20;;;;;;4872744;29;20131;-85
2022/07/19 10:22:41;;;;;;;4.53;2.30;;;33.00;62.90;;;;;;4864105;29;20049;-82
2022/07/19 10:25:13;;;;;;;4.68;1.98;;;33.00;61.10;;;;;;4866834;29;20113;-85
2022/07/19 10:27:45;;;;;;;4.65;2.20;;;33.00;61.00;;;;;;4865665;29;20045;-82
2022/07/19 10:30:10;;;;;;;2.90;1.90;;;32.90;61.20;;;;;;4881981;29;20053;-84
2022/07/19 10:32:38;;;;;;;6.68;2.35;;;32.90;60.50;;;;;;4876551;29;20052;-83
2022/07/19 10:35:42;;;;;;;5.07;2.03;;;32.80;59.70;;;;;;4876280;29;20136;-86
2022/07/19 10:38:10;;;;;;;3.85;2.28;;;32.80;59.40;;;;;;4789161;30;20055;-85
2022/07/19 10:40:43;;;;;;;4.50;2.20;;;32.80;58.40;;;;;;4804226;29;20063;-85
2022/07/19 10:43:14;;;;;;;4.65;2.40;;;32.80;58.80;;;;;;4835559;29;20105;-86
2022/07/19 10:46:01;;;;;;;5.88;1.85;;;32.80;59.70;;;;;;4873747;29;20060;-83
2022/07/19 10:48:41;;;;;;;5.80;2.35;;;32.70;59.10;;;;;;4852429;29;20045;-85
2022/07/19 10:51:11;;;;;;;7.10;2.65;;;32.80;57.40;;;;;;4873106;29;20086;-85
2022/07/19 10:53:40;;;;;;;5.60;2.30;;;32.70;57.80;;;;;;4879424;29;20107;-86
2022/07/19 10:56:16;;;;;;;5.25;2.30;;;32.80;57.40;;;;;;4878461;29;20108;-87
2022/07/19 10:58:49;;;;;;;10.60;2.13;;;32.80;57.40;;;;;;4865104;29;20037;-85
2022/07/19 11:01:18;;;;;;;4.95;2.60;;;32.80;57.00;;;;;;4879921;29;20174;-86
2022/07/19 11:03:47;;;;;;;5.10;2.35;;;32.80;56.90;;;;;;4878824;29;20550;-87
2022/07/19 11:06:24;;;;;;;5.78;2.08;;;32.80;56.90;;;;;;4878271;29;20037;-85
2022/07/19 11:08:57;;;;;;;6.57;2.20;;;32.80;58.60;;;;;;4857314;29;20053;-86
2022/07/19 11:11:23;;;;;;;7.32;2.30;;;32.90;57.50;;;;;;4878958;29;20037;-86
2022/07/19 11:13:55;;;;;;;5.68;2.30;;;32.90;56.50;;;;;;4863495;29;20509;-86
2022/07/19 11:16:24;;;;;;;5.53;2.10;;;32.90;56.90;;;;;;4851832;29;20041;-84
2022/07/19 11:18:50;;;;;;;4.10;2.22;;;33.00;55.10;;;;;;4846150;29;20044;-85
2022/07/19 11:21:16;;;;;;;5.90;2.17;;;33.00;55.60;;;;;;4881764;29;20041;-85
2022/07/19 11:23:44;;;;;;;6.63;2.50;;;33.10;55.10;;;;;;4866242;29;20077;-84
2022/07/19 11:26:20;;;;;;;5.63;2.25;;;33.10;55.50;;;;;;4864361;29;20041;-84
2022/07/19 11:28:47;;;;;;;4.07;2.30;;;33.10;56.70;;;;;;4883165;29;20057;-84
2022/07/19 11:31:23;;;;;;;5.72;1.92;;;33.20;56.10;;;;;;4882154;29;20083;-83
2022/07/19 11:33:52;;;;;;;4.28;2.10;;;33.30;55.60;;;;;;4884725;29;20085;-86
2022/07/19 11:36:19;;;;;;;4.93;2.13;;;33.40;53.60;;;;;;4864633;29;20041;-85
2022/07/19 11:38:51;;;;;;;4.53;2.38;;;33.40;53.90;;;;;;4866659;29;20061;-85
2022/07/19 11:41:19;;;;;;;4.65;1.60;;;33.50;54.20;;;;;;4880757;29;20052;-85
2022/07/19 11:43:59;;;;;;;4.65;2.28;;;33.50;54.00;;;;;;4880913;29;20045;-84
2022/07/19 11:46:30;;;;;;;6.20;2.30;;;33.60;53.90;;;;;;4859534;29;20064;-84
2022/07/19 11:48:57;;;;;;;4.32;2.03;;;33.70;54.20;;;;;;4875983;29;20532;-86
2022/07/19 11:51:23;;;;;;;3.78;1.73;;;33.80;53.40;;;;;;4876716;29;20479;-84
2022/07/19 11:53:51;;;;;;;6.30;2.20;;;33.90;54.10;;;;;;4866486;29;20069;-84
2022/07/19 11:56:25;;;;;;;4.03;2.13;;;34.10;52.40;;;;;;4867048;29;20142;-85
2022/07/19 11:58:53;;;;;;;6.25;2.10;;;34.20;52.10;;;;;;4878751;29;20040;-85
2022/07/19 12:01:28;;;;;;;3.47;1.88;;;34.20;51.70;;;;;;4869431;29;20044;-84
2022/07/19 12:04:03;;;;;;;5.95;2.00;;;34.20;50.70;;;;;;4853230;29;20044;-85
2022/07/19 12:06:46;;;;;;;3.63;1.83;;;34.30;51.80;;;;;;4868653;29;20072;-87
2022/07/19 12:09:18;;;;;;;3.70;1.98;;;34.30;52.10;;;;;;4884357;29;20042;-84
2022/07/19 12:11:44;;;;;;;4.88;2.03;;;34.40;51.00;;;;;;4879656;29;20509;-86
2022/07/19 12:14:20;;;;;;;4.55;1.70;;;34.50;51.00;;;;;;4862273;29;20113;-85
2022/07/19 12:16:50;;;;;;;3.72;1.50;;;34.50;49.70;;;;;;4864141;29;20078;-85
2022/07/19 12:19:20;;;;;;;5.07;1.70;;;34.60;49.00;;;;;;4881625;29;20092;-85
2022/07/19 12:21:46;;;;;;;7.22;2.20;;;34.60;49.20;;;;;;4877752;29;20061;-85
2022/07/19 12:24:15;;;;;;;9.13;2.20;;;34.70;49.70;;;;;;4875583;29;20048;-85
2022/07/19 12:26:44;;;;;;;4.70;1.90;;;34.70;49.50;;;;;;4876603;29;20045;-84
2022/07/19 12:29:33;;;;;;;7.32;2.00;;;34.90;50.30;;;;;;4858246;29;20048;-84
2022/07/19 12:32:07;;;;;;;4.20;1.90;;;35.10;51.10;;;;;;4865637;29;20069;-84
2022/07/19 12:34:58;;;;;;;4.10;1.75;;;35.20;50.00;;;;;;4891745;29;20037;-84
2022/07/19 12:37:40;;;;;;;7.00;2.00;;;35.50;50.10;;;;;;4876484;29;20045;-83
2022/07/19 12:40:12;;;;;;;3.70;1.60;;;35.70;51.30;;;;;;4875109;29;20053;-84
2022/07/19 12:42:49;;;;;;;3.20;1.80;;;36.00;49.70;;;;;;4876360;29;20049;-84
2022/07/19 12:45:22;;;;;;;2.97;1.73;;;36.10;48.10;;;;;;4883502;29;20060;-84
2022/07/19 12:47:49;;;;;;;2.55;1.73;;;36.40;48.60;;;;;;4890718;29;20098;-83
2022/07/19 12:50:22;;;;;;;1.90;1.70;;;36.70;48.50;;;;;;4892485;29;20082;-85
2022/07/19 12:52:49;;;;;;;2.97;1.85;;;37.10;47.00;;;;;;4879410;29;20049;-84
2022/07/19 12:55:15;;;;;;;2.70;1.60;;;37.40;45.60;;;;;;4866025;29;20725;-83